Time;durP1;ratioP1;P1;durP2;ratioP2;P2;SDS_P1;SDS_P2;PMS_P1;PMS_P2;Temp;Humidity;BMP_temperature;BMP_pressure;BME280_temperature;BME280_humidity;BME280_pressure;Samples;Min_cycle;Max_cycle;Signal;HPM_P1;HPM_P2
2023/03/30 00:02:03;;;;;;;16.67;10.30;;;12.00;99.90;;;;;;5032910;28;20040;-70
2023/03/30 00:04:33;;;;;;;13.52;9.73;;;12.20;99.90;;;;;;5032767;28;20455;-71
2023/03/30 00:06:59;;;;;;;13.20;9.50;;;;;;;;;;5033107;28;20038;-70
2023/03/30 00:09:29;;;;;;;14.77;9.63;;;;;;;;;;5033532;28;20042;-70
2023/03/30 00:11:55;;;;;;;12.45;8.90;;;12.20;99.90;;;;;;5033214;28;20048;-70
2023/03/30 00:14:30;;;;;;;13.80;8.48;;;;;;;;;;5032749;28;20041;-70
2023/03/30 00:16:55;;;;;;;13.88;8.68;;;12.20;99.90;;;;;;5033324;28;20080;-70
2023/03/30 00:19:22;;;;;;;15.45;8.48;;;;;;;;;;5016607;28;20087;-70
2023/03/30 00:21:48;;;;;;;16.13;8.05;;;12.30;99.90;;;;;;5032872;28;20080;-70
2023/03/30 00:24:14;;;;;;;14.10;8.98;;;12.40;99.90;;;;;;5032798;28;20045;-70
2023/03/30 00:26:40;;;;;;;16.30;8.25;;;;;;;;;;5032994;28;20041;-70
2023/03/30 00:29:06;;;;;;;11.18;7.30;;;;;;;;;;5032712;28;20038;-70
2023/03/30 00:31:32;;;;;;;14.07;7.50;;;;;;;;;;5032839;28;20482;-70
2023/03/30 00:33:57;;;;;;;15.45;8.07;;;12.30;99.90;;;;;;5032544;28;20049;-69
2023/03/30 00:36:23;;;;;;;12.90;7.70;;;12.60;99.90;;;;;;5032541;28;20124;-70
2023/03/30 00:38:49;;;;;;;11.65;6.90;;;;;;;;;;5032714;28;20408;-70
2023/03/30 00:41:15;;;;;;;13.95;7.70;;;12.40;99.90;;;;;;5016126;28;20038;-69
2023/03/30 00:44:02;;;;;;;13.98;7.40;;;12.50;99.90;;;;;;5015822;28;20040;-70
2023/03/30 00:46:29;;;;;;;11.75;7.40;;;12.50;99.90;;;;;;5032639;28;20048;-71
2023/03/30 00:48:58;;;;;;;10.65;7.22;;;12.20;99.90;;;;;;5032567;28;20493;-70
2023/03/30 00:51:26;;;;;;;11.23;7.63;;;12.50;99.90;;;;;;5032618;28;20041;-70
2023/03/30 00:53:57;;;;;;;10.57;7.35;;;12.50;99.90;;;;;;5032420;28;20052;-70
2023/03/30 00:56:27;;;;;;;12.95;7.22;;;12.60;99.90;;;;;;5032483;28;20080;-70
2023/03/30 00:58:54;;;;;;;12.07;7.32;;;;;;;;;;5031905;28;20045;-70
2023/03/30 01:01:27;;;;;;;9.23;7.07;;;12.50;99.90;;;;;;5032520;28;20413;-69
2023/03/30 01:03:58;;;;;;;12.32;7.07;;;12.60;99.90;;;;;;5032197;28;20037;-70
2023/03/30 01:06:28;;;;;;;9.52;6.65;;;12.50;99.90;;;;;;5032306;28;20044;-70
2023/03/30 01:08:55;;;;;;;9.95;6.65;;;;;;;;;;5031734;28;20552;-70
2023/03/30 01:11:21;;;;;;;11.07;7.32;;;12.60;99.90;;;;;;5032103;28;20049;-69
2023/03/30 01:13:51;;;;;;;11.65;7.50;;;12.70;99.90;;;;;;5032174;28;20049;-70
2023/03/30 01:16:51;;;;;;;10.07;6.97;;;12.70;99.90;;;;;;5031666;28;20050;-70
2023/03/30 01:19:32;;;;;;;11.75;7.03;;;12.60;99.90;;;;;;5031855;28;20052;-70
2023/03/30 01:22:35;;;;;;;9.75;7.05;;;12.50;99.90;;;;;;5032058;28;20064;-70
2023/03/30 01:25:19;;;;;;;12.27;6.63;;;12.60;99.90;;;;;;5031805;28;20099;-71
2023/03/30 01:28:06;;;;;;;12.15;6.90;;;12.50;99.90;;;;;;5031890;28;20049;-70
2023/03/30 01:30:32;;;;;;;17.65;7.10;;;;;;;;;;5032020;28;20053;-70
2023/03/30 01:33:22;;;;;;;12.18;6.68;;;12.30;99.90;;;;;;5031470;28;20505;-70
2023/03/30 01:36:06;;;;;;;9.73;6.20;;;12.50;99.90;;;;;;5031624;28;20416;-70
2023/03/30 01:39:28;;;;;;;12.88;6.43;;;12.50;99.90;;;;;;5031699;28;20099;-70
2023/03/30 01:42:02;;;;;;;12.10;6.43;;;12.50;99.90;;;;;;4977801;28;20574;-70
2023/03/30 01:44:48;;;;;;;8.50;6.30;;;12.40;99.90;;;;;;5031336;28;20096;-70
2023/03/30 01:47:39;;;;;;;9.27;5.60;;;12.30;99.90;;;;;;5031658;28;20060;-71
2023/03/30 01:50:14;;;;;;;11.52;5.35;;;12.50;99.90;;;;;;5032602;28;20045;-70
2023/03/30 01:53:05;;;;;;;13.25;4.97;;;12.60;99.90;;;;;;5014888;28;20551;-69
2023/03/30 01:55:40;;;;;;;9.40;5.40;;;12.70;99.90;;;;;;5031038;28;20087;-70
2023/03/30 01:58:20;;;;;;;12.05;5.32;;;12.90;99.90;;;;;;5031669;28;20068;-70
2023/03/30 02:00:49;;;;;;;15.38;6.13;;;12.60;99.90;;;;;;5014576;28;20095;-70
2023/03/30 02:03:30;;;;;;;9.88;5.05;;;12.70;99.90;;;;;;5030897;28;20038;-70
2023/03/30 02:06:09;;;;;;;9.38;4.70;;;12.60;99.90;;;;;;5014466;28;20037;-70
2023/03/30 02:08:36;;;;;;;12.25;4.93;;;12.60;99.90;;;;;;5014747;28;20052;-70
2023/03/30 02:11:02;;;;;;;8.98;4.80;;;12.60;99.90;;;;;;5031612;28;20037;-69
2023/03/30 02:13:30;;;;;;;8.57;4.43;;;12.60;99.90;;;;;;5031007;28;20501;-70
2023/03/30 02:16:06;;;;;;;14.30;4.82;;;12.40;99.90;;;;;;5014212;28;20042;-70
2023/03/30 02:18:31;;;;;;;14.68;5.60;;;12.60;99.90;;;;;;5032209;28;20172;-70
2023/03/30 02:20:58;;;;;;;8.98;4.47;;;;;;;;;;5030695;28;20128;-70
2023/03/30 02:23:31;;;;;;;12.32;5.22;;;12.50;99.90;;;;;;5030654;28;20048;-69
2023/03/30 02:25:57;;;;;;;13.15;4.78;;;12.50;99.90;;;;;;5030686;28;20508;-70
2023/03/30 02:28:22;;;;;;;11.60;4.30;;;12.30;99.90;;;;;;5030679;28;20045;-70
2023/03/30 02:30:48;;;;;;;9.00;5.25;;;12.30;99.90;;;;;;5030742;28;20417;-70
2023/03/30 02:33:39;;;;;;;12.27;4.43;;;12.50;99.90;;;;;;5030596;28;20037;-70
2023/03/30 02:36:23;;;;;;;10.23;4.38;;;12.50;99.90;;;;;;5030544;28;20509;-70
2023/03/30 02:39:12;;;;;;;;;;;12.60;99.90;;;;;;5031216;28;20068;-70
2023/03/30 02:42:04;;;;;;;9.85;3.92;;;12.50;99.90;;;;;;5011543;28;19920;-70
2023/03/30 02:44:41;;;;;;;8.48;3.47;;;12.70;99.90;;;;;;5029985;28;20045;-69
2023/03/30 02:47:10;;;;;;;9.23;3.58;;;12.60;99.90;;;;;;5030575;28;20052;-70
2023/03/30 02:50:08;;;;;;;7.30;3.17;;;12.60;99.90;;;;;;5030219;28;20041;-70
2023/03/30 02:52:52;;;;;;;11.57;3.72;;;12.60;99.90;;;;;;5030298;28;20178;-70
2023/03/30 02:55:27;;;;;;;11.55;4.18;;;12.50;99.90;;;;;;5013744;28;20046;-70
2023/03/30 02:58:09;;;;;;;7.93;3.42;;;12.90;99.90;;;;;;5030499;28;20048;-69
2023/03/30 03:00:51;;;;;;;9.65;4.32;;;12.80;99.90;;;;;;5014040;28;20045;-70
2023/03/30 03:03:22;;;;;;;8.15;3.90;;;12.80;99.90;;;;;;5030169;28;20041;-69
2023/03/30 03:05:52;;;;;;;6.70;3.47;;;12.70;99.90;;;;;;5030686;28;20080;-70
2023/03/30 03:08:22;;;;;;;9.90;3.30;;;12.60;99.90;;;;;;5030377;28;20049;-70
2023/03/30 03:10:48;;;;;;;9.70;3.60;;;;;;;;;;5030588;28;20045;-70
2023/03/30 03:13:15;;;;;;;9.45;3.58;;;12.70;99.90;;;;;;5030048;28;20167;-69
2023/03/30 03:15:44;;;;;;;9.18;4.15;;;12.50;99.90;;;;;;5029916;28;20050;-70
2023/03/30 03:18:10;;;;;;;7.80;3.60;;;;;;;;;;5030190;28;20091;-69
2023/03/30 03:20:35;;;;;;;10.23;3.97;;;12.50;99.90;;;;;;5030139;28;20092;-70
2023/03/30 03:23:01;;;;;;;11.77;4.03;;;12.50;99.90;;;;;;5033935;28;20501;-70
2023/03/30 03:25:27;;;;;;;8.65;3.35;;;12.40;99.90;;;;;;5033956;28;20489;-70
2023/03/30 03:27:52;;;;;;;9.05;3.67;;;12.50;99.90;;;;;;5033985;28;20127;-69
2023/03/30 03:30:18;;;;;;;8.00;3.40;;;12.40;99.90;;;;;;5033903;28;20045;-70
2023/03/30 03:32:43;;;;;;;9.88;4.00;;;12.60;99.90;;;;;;5033788;28;20047;-70
2023/03/30 03:35:09;;;;;;;10.30;4.07;;;;;;;;;;5033508;28;20505;-70
2023/03/30 03:37:36;;;;;;;7.38;3.17;;;12.50;99.90;;;;;;5033883;28;20068;-68
2023/03/30 03:40:04;;;;;;;8.15;3.65;;;;;;;;;;5033731;28;20033;-70
2023/03/30 03:42:30;;;;;;;12.10;3.35;;;12.60;99.90;;;;;;5033719;28;20048;-70
2023/03/30 03:44:55;;;;;;;11.38;3.80;;;;;;;;;;5033490;28;20412;-70
2023/03/30 03:47:21;;;;;;;9.57;3.75;;;12.40;99.90;;;;;;5033737;28;20045;-70
2023/03/30 03:49:47;;;;;;;17.10;3.97;;;12.50;99.90;;;;;;5017206;28;20041;-70
2023/03/30 03:52:13;;;;;;;12.93;3.42;;;12.50;99.90;;;;;;5033761;28;20041;-70
2023/03/30 03:54:38;;;;;;;12.43;3.65;;;12.40;99.90;;;;;;5032960;28;20092;-70
2023/03/30 03:57:05;;;;;;;13.38;3.80;;;;;;;;;;5033659;28;20091;-70
2023/03/30 03:59:31;;;;;;;10.00;3.60;;;12.50;99.90;;;;;;5033303;28;20048;-70
2023/03/30 04:01:57;;;;;;;12.75;3.88;;;12.50;99.90;;;;;;5033707;28;20041;-70
2023/03/30 04:04:23;;;;;;;7.70;2.85;;;;;;;;;;5033094;28;20029;-69
2023/03/30 04:06:50;;;;;;;13.60;3.63;;;;;;;;;;5033313;28;20048;-70
2023/03/30 04:09:16;;;;;;;11.05;3.00;;;12.60;99.90;;;;;;5033000;28;20056;-70
2023/03/30 04:11:42;;;;;;;11.25;3.95;;;12.50;99.90;;;;;;5033136;28;20048;-70
2023/03/30 04:14:08;;;;;;;17.42;3.50;;;;;;;;;;5033021;28;20041;-69
2023/03/30 04:16:33;;;;;;;15.88;2.80;;;12.40;99.90;;;;;;5033009;28;20046;-70
2023/03/30 04:18:59;;;;;;;12.15;3.28;;;;;;;;;;5016608;28;20037;-70
2023/03/30 04:21:28;;;;;;;9.80;3.47;;;;;;;;;;5033195;28;20033;-69
2023/03/30 04:23:54;;;;;;;8.82;2.60;;;;;;;;;;5032784;28;20523;-70
2023/03/30 04:26:20;;;;;;;7.00;3.08;;;12.50;99.90;;;;;;5032805;28;20121;-70
2023/03/30 04:28:46;;;;;;;13.90;3.10;;;;;;;;;;5032801;28;20124;-70
2023/03/30 04:31:12;;;;;;;10.00;2.75;;;12.70;99.90;;;;;;5033194;28;20409;-70
2023/03/30 04:33:49;;;;;;;10.95;2.45;;;12.60;99.90;;;;;;5032351;28;20040;-70
2023/03/30 04:36:17;;;;;;;13.05;3.28;;;12.50;99.90;;;;;;5032880;28;20033;-70
2023/03/30 04:38:56;;;;;;;11.23;2.83;;;12.40;99.90;;;;;;5032489;28;20049;-70
2023/03/30 04:41:25;;;;;;;8.75;2.60;;;;;;;;;;5016640;28;20041;-70
2023/03/30 04:43:51;;;;;;;11.80;2.90;;;12.70;99.90;;;;;;5032816;28;20044;-70
2023/03/30 04:46:17;;;;;;;10.20;2.72;;;12.60;99.90;;;;;;5032630;28;20030;-70
2023/03/30 04:48:42;;;;;;;10.48;2.70;;;;;;;;;;5032259;28;20455;-71
2023/03/30 04:51:09;;;;;;;13.48;2.50;;;12.60;99.90;;;;;;5032738;28;20068;-70
2023/03/30 04:53:35;;;;;;;7.85;2.78;;;12.60;99.90;;;;;;5032874;28;20033;-70
2023/03/30 04:56:00;;;;;;;9.77;2.60;;;12.60;99.90;;;;;;5015886;28;20037;-70
2023/03/30 04:58:26;;;;;;;13.52;3.67;;;12.70;99.90;;;;;;5032392;28;20098;-69
2023/03/30 05:00:52;;;;;;;6.75;2.75;;;12.70;99.90;;;;;;5032056;28;20052;-70
2023/03/30 05:03:18;;;;;;;14.15;3.88;;;12.80;99.90;;;;;;5032098;28;20045;-70
2023/03/30 05:05:43;;;;;;;9.90;2.75;;;12.90;99.90;;;;;;5015584;28;20091;-70
2023/03/30 05:08:09;;;;;;;13.68;3.13;;;12.90;99.90;;;;;;5032364;28;20087;-70
2023/03/30 05:10:35;;;;;;;12.57;3.63;;;12.70;99.90;;;;;;5015633;28;20045;-70
2023/03/30 05:13:00;;;;;;;15.45;2.95;;;12.80;99.90;;;;;;5031958;28;20574;-70
2023/03/30 05:15:26;;;;;;;11.70;3.10;;;12.80;99.90;;;;;;5032015;28;20041;-70
2023/03/30 05:17:52;;;;;;;11.65;2.60;;;12.70;99.90;;;;;;5031966;28;20128;-70
2023/03/30 05:20:17;;;;;;;10.43;2.90;;;12.80;99.90;;;;;;5031818;28;20602;-70
2023/03/30 05:22:44;;;;;;;11.80;2.90;;;12.90;99.90;;;;;;5015320;28;20034;-70
2023/03/30 05:25:09;;;;;;;13.20;3.17;;;12.80;99.90;;;;;;5031436;28;20049;-70
2023/03/30 05:27:35;;;;;;;14.15;2.78;;;12.70;99.90;;;;;;5031880;28;20038;-70
2023/03/30 05:30:02;;;;;;;10.73;3.45;;;;;;;;;;5031940;28;20086;-70
2023/03/30 05:32:28;;;;;;;11.00;2.88;;;12.70;99.90;;;;;;5031549;28;20128;-70
2023/03/30 05:34:54;;;;;;;9.57;3.15;;;12.70;99.90;;;;;;5031335;28;20124;-70
2023/03/30 05:37:20;;;;;;;10.43;3.88;;;12.70;99.90;;;;;;5031834;28;20559;-70
2023/03/30 05:39:47;;;;;;;13.13;2.58;;;12.50;99.90;;;;;;5031419;28;20056;-70
2023/03/30 05:42:13;;;;;;;11.70;2.88;;;;;;;;;;5031519;28;20062;-70
2023/03/30 05:44:38;;;;;;;10.75;3.33;;;12.50;99.90;;;;;;5027477;28;20057;-70
2023/03/30 05:47:04;;;;;;;13.10;2.92;;;12.50;99.90;;;;;;5030300;28;20029;-69
2023/03/30 05:49:30;;;;;;;14.18;3.63;;;;;;;;;;5028618;28;20033;-70
2023/03/30 05:51:56;;;;;;;13.10;3.30;;;;;;;;;;5031336;28;20091;-70
2023/03/30 05:54:22;;;;;;;15.10;3.35;;;;;;;;;;5030348;28;20482;-69
2023/03/30 05:56:48;;;;;;;16.23;4.22;;;;;;;;;;5030959;28;20049;-70
2023/03/30 05:59:15;;;;;;;9.10;3.22;;;12.70;99.90;;;;;;5031305;28;20045;-70
2023/03/30 06:01:40;;;;;;;16.70;3.78;;;12.60;99.90;;;;;;5007788;28;20084;-69
2023/03/30 06:04:07;;;;;;;9.85;3.33;;;;;;;;;;5018820;28;20526;-70
2023/03/30 06:06:33;;;;;;;7.97;3.25;;;;;;;;;;5022517;28;20049;-70
2023/03/30 06:08:59;;;;;;;8.68;3.13;;;;;;;;;;5030616;28;20174;-70
2023/03/30 06:11:25;;;;;;;13.95;4.35;;;12.80;99.90;;;;;;5014560;28;20045;-70
2023/03/30 06:13:51;;;;;;;9.77;3.30;;;;;;;;;;5011568;28;20056;-70
2023/03/30 06:16:17;;;;;;;9.60;3.17;;;;;;;;;;4997094;28;20128;-70
2023/03/30 06:18:42;;;;;;;8.45;3.53;;;12.90;99.90;;;;;;5013879;28;20036;-70
2023/03/30 06:21:08;;;;;;;10.00;3.25;;;12.80;99.90;;;;;;5024182;28;20037;-70
2023/03/30 06:23:36;;;;;;;10.23;3.30;;;12.80;99.90;;;;;;5018415;28;20453;-70
2023/03/30 06:26:02;;;;;;;11.45;3.40;;;;;;;;;;5029168;28;20386;-70
2023/03/30 06:28:28;;;;;;;15.88;4.40;;;;;;;;;;5030213;28;20041;-72
2023/03/30 06:30:54;;;;;;;9.73;3.22;;;;;;;;;;5029898;28;20049;-70
2023/03/30 06:33:20;;;;;;;12.85;3.47;;;;;;;;;;5030021;28;20328;-69
2023/03/30 06:35:46;;;;;;;11.18;3.33;;;;;;;;;;5030283;28;20049;-70
2023/03/30 06:38:13;;;;;;;11.30;2.65;;;12.90;99.90;;;;;;5013252;28;20034;-70
2023/03/30 06:40:38;;;;;;;15.30;3.40;;;12.90;99.90;;;;;;5029368;28;20038;-69
2023/03/30 06:43:05;;;;;;;11.65;3.50;;;12.90;99.90;;;;;;5029647;28;20039;-70
2023/03/30 06:45:31;;;;;;;14.30;3.75;;;12.80;99.90;;;;;;5029755;28;20048;-70
2023/03/30 06:47:57;;;;;;;12.80;2.75;;;12.80;99.90;;;;;;5029686;28;20041;-70
2023/03/30 06:50:23;;;;;;;15.60;3.30;;;;;;;;;;5028899;28;20041;-70
2023/03/30 06:52:49;;;;;;;16.63;3.55;;;;;;;;;;5028723;28;20037;-70
2023/03/30 06:55:15;;;;;;;16.83;3.50;;;;;;;;;;5029187;28;20037;-70
2023/03/30 06:57:41;;;;;;;11.90;3.38;;;;;;;;;;5030577;28;20037;-70
2023/03/30 07:00:14;;;;;;;11.93;3.55;;;12.80;99.90;;;;;;5012603;28;20045;-70
2023/03/30 07:02:43;;;;;;;17.30;3.90;;;12.90;99.90;;;;;;5029903;28;20037;-70
2023/03/30 07:05:09;;;;;;;11.25;2.88;;;12.90;99.90;;;;;;5029816;28;20049;-70
2023/03/30 07:07:36;;;;;;;19.38;4.20;;;;;;;;;;5029338;28;20128;-70
2023/03/30 07:10:09;;;;;;;22.23;3.70;;;12.70;99.90;;;;;;5029813;28;20057;-70
2023/03/30 07:12:35;;;;;;;24.65;4.07;;;12.70;99.90;;;;;;5029001;28;20063;-70
2023/03/30 07:15:02;;;;;;;17.05;3.95;;;12.80;99.90;;;;;;5028798;28;20045;-70
2023/03/30 07:17:27;;;;;;;17.25;4.18;;;12.80;99.90;;;;;;5024213;28;20060;-70
2023/03/30 07:19:53;;;;;;;24.30;4.18;;;12.60;99.90;;;;;;5027741;28;20505;-70
2023/03/30 07:22:19;;;;;;;26.13;5.72;;;12.70;99.90;;;;;;5029780;28;20417;-70
2023/03/30 07:24:44;;;;;;;22.30;4.22;;;12.60;99.90;;;;;;5022597;28;20034;-71
2023/03/30 07:27:10;;;;;;;27.60;4.00;;;12.60;99.90;;;;;;5024236;28;20123;-71
2023/03/30 07:29:36;;;;;;;21.67;4.40;;;12.70;99.90;;;;;;5002529;28;20600;-71
2023/03/30 07:32:02;;;;;;;24.35;3.92;;;12.40;99.90;;;;;;5023634;28;20030;-71
2023/03/30 07:34:28;;;;;;;19.60;3.67;;;12.50;99.90;;;;;;5019162;28;20190;-70
2023/03/30 07:36:54;;;;;;;25.35;4.78;;;;;;;;;;5019054;28;20045;-70
2023/03/30 07:39:20;;;;;;;18.58;4.82;;;12.50;99.90;;;;;;5025023;28;20455;-71
2023/03/30 07:41:46;;;;;;;19.55;4.93;;;12.50;99.90;;;;;;4998352;28;20128;-70
2023/03/30 07:44:11;;;;;;;21.48;4.07;;;12.60;99.90;;;;;;5020860;28;20056;-70
2023/03/30 07:46:37;;;;;;;22.13;4.13;;;;;;;;;;5013129;28;20033;-70
2023/03/30 07:49:03;;;;;;;19.35;3.80;;;;;;;;;;5030935;28;20409;-71
2023/03/30 07:51:29;;;;;;;20.42;4.38;;;;;;;;;;5028907;28;20583;-70
2023/03/30 07:53:55;;;;;;;17.55;5.22;;;;;;;;;;5013056;28;20095;-71
2023/03/30 07:56:21;;;;;;;24.20;5.35;;;12.50;99.90;;;;;;5028929;28;20041;-71
2023/03/30 07:58:47;;;;;;;23.60;4.38;;;12.60;99.90;;;;;;5010027;28;20042;-71
2023/03/30 08:01:12;;;;;;;20.33;4.10;;;12.50;99.90;;;;;;5012782;28;20065;-70
2023/03/30 08:03:38;;;;;;;21.30;4.68;;;;;;;;;;5024468;28;20033;-71
2023/03/30 08:06:05;;;;;;;24.30;4.53;;;;;;;;;;5029400;28;20042;-70
2023/03/30 08:08:32;;;;;;;31.77;5.38;;;12.30;99.90;;;;;;5030032;28;20095;-70
2023/03/30 08:10:57;;;;;;;23.52;4.28;;;12.20;99.90;;;;;;5032977;28;20484;-71
2023/03/30 08:13:23;;;;;;;23.88;5.88;;;12.30;99.90;;;;;;5033095;28;20103;-71
2023/03/30 08:15:51;;;;;;;28.45;5.15;;;12.30;99.90;;;;;;5032882;28;20040;-71
2023/03/30 08:18:17;;;;;;;30.80;5.43;;;;;;;;;;5031343;28;20042;-71
2023/03/30 08:20:44;;;;;;;27.25;6.07;;;;;;;;;;5032385;28;20053;-70
2023/03/30 08:23:11;;;;;;;28.83;5.10;;;12.20;99.90;;;;;;5032886;28;20117;-70
2023/03/30 08:25:37;;;;;;;27.25;5.57;;;12.40;99.90;;;;;;5032380;28;20037;-71
2023/03/30 08:28:04;;;;;;;24.25;5.65;;;12.30;99.90;;;;;;5033518;28;20034;-71
2023/03/30 08:30:30;;;;;;;24.48;5.30;;;12.20;99.90;;;;;;5033054;28;20578;-71
2023/03/30 08:32:57;;;;;;;24.35;5.22;;;;;;;;;;5032372;28;20037;-71
2023/03/30 08:35:22;;;;;;;28.75;4.90;;;12.30;99.90;;;;;;5031983;28;20124;-71
2023/03/30 08:37:48;;;;;;;23.90;7.32;;;;;;;;;;5032976;28;20141;-70
2023/03/30 08:40:16;;;;;;;29.70;6.68;;;12.60;99.90;;;;;;5015381;28;20038;-70
2023/03/30 08:43:16;;;;;;;22.67;5.97;;;12.60;99.90;;;;;;5032881;28;20068;-71
2023/03/30 08:45:42;;;;;;;33.83;6.00;;;12.80;99.90;;;;;;5032315;28;20091;-70
2023/03/30 08:48:19;;;;;;;24.20;5.38;;;13.00;99.90;;;;;;5023489;28;20045;-71
2023/03/30 08:50:52;;;;;;;33.45;5.53;;;13.00;99.90;;;;;;5033386;28;20440;-71
2023/03/30 08:53:18;;;;;;;30.95;6.30;;;12.90;99.90;;;;;;5031847;28;20057;-71
2023/03/30 08:56:03;;;;;;;27.20;6.50;;;13.00;99.90;;;;;;5015966;28;20037;-71
2023/03/30 08:58:29;;;;;;;28.80;5.68;;;;;;;;;;5032115;28;20437;-70
2023/03/30 09:01:21;;;;;;;23.98;5.38;;;13.10;99.90;;;;;;5015277;28;20080;-70
2023/03/30 09:04:15;;;;;;;28.27;6.78;;;13.20;99.90;;;;;;5023446;28;20041;-71
2023/03/30 09:07:02;;;;;;;28.73;4.60;;;13.50;99.90;;;;;;4996051;28;20077;-71
2023/03/30 09:09:31;;;;;;;19.15;4.63;;;13.30;99.90;;;;;;5015990;28;20069;-71
2023/03/30 09:12:15;;;;;;;32.47;5.05;;;13.40;99.90;;;;;;5031810;28;20118;-71
2023/03/30 09:14:47;;;;;;;21.13;5.28;;;13.30;99.90;;;;;;5032141;28;20124;-71
2023/03/30 09:17:22;;;;;;;19.05;4.78;;;13.30;99.90;;;;;;5031254;28;20124;-70
2023/03/30 09:20:11;;;;;;;23.40;5.75;;;13.40;99.90;;;;;;5031628;28;20045;-71
2023/03/30 09:22:39;;;;;;;34.80;4.97;;;13.30;99.90;;;;;;5022403;28;20417;-70
2023/03/30 09:25:43;;;;;;;20.00;3.97;;;13.10;99.90;;;;;;5031837;28;20049;-71
2023/03/30 09:28:22;;;;;;;25.48;4.85;;;13.50;99.90;;;;;;5014871;28;20041;-71
2023/03/30 09:30:52;;;;;;;30.75;5.63;;;13.40;99.90;;;;;;5031969;28;20168;-71
2023/03/30 09:33:45;;;;;;;24.38;5.10;;;13.40;99.90;;;;;;5030984;28;20037;-70
2023/03/30 09:36:30;;;;;;;18.35;3.95;;;13.30;99.90;;;;;;5011321;28;20038;-71
2023/03/30 09:38:56;;;;;;;24.10;4.57;;;;;;;;;;5006492;28;20043;-71
2023/03/30 09:41:42;;;;;;;28.27;5.57;;;13.30;99.90;;;;;;5013003;28;20044;-70
2023/03/30 09:44:35;;;;;;;20.48;4.15;;;13.40;99.90;;;;;;5014296;28;20052;-70
2023/03/30 09:47:11;;;;;;;19.17;3.80;;;13.30;99.90;;;;;;5008517;28;20045;-71
2023/03/30 09:49:39;;;;;;;27.80;4.63;;;13.20;99.90;;;;;;5031649;28;20045;-71
2023/03/30 09:52:06;;;;;;;16.65;4.00;;;13.20;99.90;;;;;;5014309;28;20120;-71
2023/03/30 09:54:40;;;;;;;19.52;4.32;;;13.40;99.90;;;;;;5030889;28;20511;-71
2023/03/30 09:57:25;;;;;;;21.70;4.88;;;13.50;99.90;;;;;;5032123;28;20037;-70
2023/03/30 09:59:55;;;;;;;21.85;3.60;;;;;;;;;;5030959;28;20041;-71
2023/03/30 10:02:23;;;;;;;21.25;3.95;;;13.40;99.90;;;;;;5014883;28;20041;-71
2023/03/30 10:04:52;;;;;;;18.27;3.83;;;13.30;99.90;;;;;;5029967;28;20044;-70
2023/03/30 10:07:39;;;;;;;28.98;5.45;;;13.20;99.90;;;;;;5030055;28;20258;-70
2023/03/30 10:10:24;;;;;;;23.08;4.22;;;13.10;99.90;;;;;;5023536;28;20033;-68
2023/03/30 10:12:50;;;;;;;24.75;4.60;;;;;;;;;;5027811;28;20049;-71
2023/03/30 10:15:19;;;;;;;25.67;4.88;;;13.30;99.90;;;;;;5020936;28;20099;-71
2023/03/30 10:17:47;;;;;;;23.48;5.38;;;12.90;99.90;;;;;;5013644;28;20038;-70
2023/03/30 10:20:28;;;;;;;26.20;6.53;;;13.40;99.90;;;;;;5004717;28;20049;-71
2023/03/30 10:23:11;;;;;;;32.88;6.30;;;13.50;99.90;;;;;;5019547;28;20125;-70
2023/03/30 10:25:40;;;;;;;24.23;4.70;;;13.40;99.90;;;;;;5021487;28;20120;-71
2023/03/30 10:28:20;;;;;;;22.67;5.47;;;13.30;99.90;;;;;;5025500;28;20041;-70
2023/03/30 10:30:52;;;;;;;25.35;4.35;;;13.30;99.90;;;;;;5025147;28;20513;-71
2023/03/30 10:33:18;;;;;;;27.80;5.43;;;;;;;;;;5029786;28;20132;-71
2023/03/30 10:35:47;;;;;;;26.75;4.80;;;13.40;99.90;;;;;;5029334;28;20060;-70
2023/03/30 10:38:14;;;;;;;21.13;5.22;;;13.50;99.90;;;;;;5000169;28;20121;-71
2023/03/30 10:40:41;;;;;;;25.50;5.22;;;13.40;99.90;;;;;;5011914;28;20052;-70
2023/03/30 10:43:24;;;;;;;22.60;4.25;;;13.60;99.90;;;;;;5008452;28;20041;-71
2023/03/30 10:45:52;;;;;;;22.60;4.68;;;13.80;99.90;;;;;;5019471;28;20029;-71
2023/03/30 10:48:47;;;;;;;34.15;5.32;;;13.70;99.90;;;;;;5023279;28;20052;-71
2023/03/30 10:51:26;;;;;;;27.25;4.50;;;13.70;99.90;;;;;;5012765;28;20152;-71
2023/03/30 10:54:24;;;;;;;18.40;4.32;;;13.80;99.90;;;;;;5030310;28;20069;-71
2023/03/30 10:56:58;;;;;;;20.13;4.55;;;14.00;99.90;;;;;;5003011;28;20049;-71
2023/03/30 10:59:24;;;;;;;24.58;5.13;;;;;;;;;;5013144;28;20052;-71
2023/03/30 11:02:15;;;;;;;23.45;4.60;;;14.20;99.90;;;;;;5024747;28;20152;-70
2023/03/30 11:04:47;;;;;;;24.17;5.10;;;14.20;99.90;;;;;;5014360;28;20041;-70
2023/03/30 11:07:42;;;;;;;22.73;4.65;;;14.40;99.90;;;;;;5020059;28;20080;-71
2023/03/30 11:10:17;;;;;;;17.42;4.65;;;14.30;99.90;;;;;;5029267;28;20045;-70
2023/03/30 11:12:48;;;;;;;24.20;5.65;;;14.30;99.90;;;;;;5030138;28;20132;-70
2023/03/30 11:15:14;;;;;;;27.63;6.90;;;;;;;;;;5028878;28;20106;-71
2023/03/30 11:18:21;;;;;;;30.50;5.53;;;14.40;99.90;;;;;;5029836;28;20037;-71
2023/03/30 11:21:09;;;;;;;27.05;5.57;;;14.60;99.90;;;;;;4972436;28;20050;-70
2023/03/30 11:24:05;;;;;;;19.60;5.05;;;14.70;99.90;;;;;;5029393;28;20072;-71
2023/03/30 11:27:14;;;;;;;19.23;5.13;;;14.90;99.90;;;;;;5029768;28;20041;-70
2023/03/30 11:29:43;;;;;;;23.73;4.82;;;15.00;99.90;;;;;;5029893;28;20041;-71
2023/03/30 11:32:24;;;;;;;32.30;6.65;;;14.90;99.90;;;;;;5028891;28;20068;-70
2023/03/30 11:35:27;;;;;;;25.45;5.47;;;14.90;99.90;;;;;;5013106;28;20048;-70
2023/03/30 11:37:57;;;;;;;19.65;4.78;;;14.90;99.90;;;;;;5030274;28;20489;-71
2023/03/30 11:40:31;;;;;;;33.83;5.65;;;14.70;99.90;;;;;;5029596;28;20602;-70
2023/03/30 11:42:57;;;;;;;24.80;5.22;;;;;;;;;;5012787;28;20034;-70
2023/03/30 11:45:48;;;;;;;22.20;4.65;;;14.90;99.90;;;;;;5033132;28;20385;-70
2023/03/30 11:48:22;;;;;;;25.90;5.68;;;14.80;99.90;;;;;;5016939;28;20038;-71
2023/03/30 11:51:25;;;;;;;26.27;4.15;;;15.00;99.90;;;;;;5032934;28;20060;-71
2023/03/30 11:54:10;;;;;;;20.70;5.25;;;12.80;99.90;;;;;;5033443;28;20037;-71
2023/03/30 11:56:45;;;;;;;31.45;5.57;;;15.00;99.90;;;;;;5032953;28;20081;-71
2023/03/30 11:59:32;;;;;;;21.83;5.50;;;15.00;99.90;;;;;;5033348;28;20041;-71
2023/03/30 12:02:20;;;;;;;22.67;3.78;;;15.00;99.90;;;;;;5033213;28;20049;-71
2023/03/30 12:04:46;;;;;;;19.70;4.68;;;;;;;;;;5032976;28;20397;-70
2023/03/30 12:07:38;;;;;;;30.52;5.63;;;15.20;99.90;;;;;;5032902;28;20037;-71
2023/03/30 12:10:17;;;;;;;22.67;5.82;;;15.30;99.90;;;;;;5024968;28;20130;-71
2023/03/30 12:12:44;;;;;;;19.05;4.70;;;;;;;;;;5016541;28;20045;-71
2023/03/30 12:15:21;;;;;;;23.77;5.00;;;15.20;99.90;;;;;;5032051;28;20577;-71
2023/03/30 12:17:50;;;;;;;25.02;5.22;;;15.10;99.90;;;;;;5033057;28;20049;-71
2023/03/30 12:20:39;;;;;;;27.60;5.65;;;15.20;99.90;;;;;;5032368;28;20156;-70
2023/03/30 12:23:32;;;;;;;24.63;4.97;;;15.40;99.90;;;;;;5033302;28;20412;-71
2023/03/30 12:26:10;;;;;;;26.08;6.35;;;15.50;99.90;;;;;;5033155;28;20048;-71
2023/03/30 12:29:02;;;;;;;26.42;5.57;;;15.40;99.90;;;;;;5032047;28;20040;-71
2023/03/30 12:31:47;;;;;;;23.25;4.38;;;15.50;99.90;;;;;;5021933;28;20054;-70
2023/03/30 12:34:12;;;;;;;26.83;5.10;;;15.00;99.90;;;;;;5031592;28;20045;-71
2023/03/30 12:36:39;;;;;;;23.50;4.57;;;14.80;99.90;;;;;;5032708;28;20096;-71
2023/03/30 12:39:43;;;;;;;21.55;5.00;;;14.60;99.90;;;;;;5032855;28;20037;-71
2023/03/30 12:42:33;;;;;;;37.47;7.20;;;14.90;99.90;;;;;;5014242;28;20056;-71
2023/03/30 12:45:13;;;;;;;27.17;6.30;;;15.20;99.90;;;;;;5015403;28;20052;-71
2023/03/30 12:48:03;;;;;;;25.75;5.40;;;14.90;99.90;;;;;;5032129;28;20515;-71
2023/03/30 12:51:11;;;;;;;31.98;6.07;;;15.10;99.90;;;;;;5016099;28;20128;-70
2023/03/30 12:53:37;;;;;;;23.98;5.72;;;;;;;;;;5031745;28;20037;-71
2023/03/30 12:56:27;;;;;;;29.50;5.93;;;15.60;99.90;;;;;;5031922;28;20528;-71
2023/03/30 12:59:14;;;;;;;24.63;4.97;;;15.50;99.90;;;;;;5031903;28;20412;-71
2023/03/30 13:01:57;;;;;;;27.05;5.20;;;15.50;99.90;;;;;;5012800;28;20046;-71
2023/03/30 13:04:26;;;;;;;17.83;4.43;;;15.90;99.90;;;;;;5019212;28;20440;-71
2023/03/30 13:06:58;;;;;;;25.98;5.82;;;16.00;99.90;;;;;;5031850;28;20452;-71
2023/03/30 13:09:26;;;;;;;25.17;6.50;;;15.70;99.90;;;;;;5032133;28;20041;-71
2023/03/30 13:11:52;;;;;;;24.83;5.45;;;15.40;99.90;;;;;;5031112;28;20052;-71
2023/03/30 13:14:30;;;;;;;29.77;6.10;;;15.40;99.90;;;;;;5015548;28;20672;-70
2023/03/30 13:16:55;;;;;;;24.42;4.90;;;15.40;99.90;;;;;;5031858;28;20049;-71
2023/03/30 13:19:24;;;;;;;24.95;4.65;;;15.70;99.90;;;;;;5031061;28;20095;-71
2023/03/30 13:22:10;;;;;;;29.52;6.68;;;15.60;99.90;;;;;;5013596;28;20040;-70
2023/03/30 13:24:50;;;;;;;29.15;6.65;;;15.90;99.90;;;;;;5031656;28;20116;-71
2023/03/30 13:27:35;;;;;;;30.33;6.60;;;15.90;99.90;;;;;;5015279;28;20072;-71
2023/03/30 13:30:09;;;;;;;27.00;5.82;;;15.90;99.90;;;;;;5023337;28;20052;-71